Página principal
METAR-TAF:

METAR-TAF

Aeroportos :

Aeroporto Internacional de Damasco

Damasco, Síria

latitude: 33-25N, longitude: 036-31E, altura: 608 m

Observação actual do tempo

O boletim foi feito há 45 minutos, às 12:00 UTC
Vento 23 kt de su-sudoeste
Temperatura 37°C
Humidade 17%
Pressão 1005 hPa
Visibilidade 10 km ou mais
sem nuvens abaixo de 1500 metros e sem cumulonimbus

METAR: OSDI 181200Z 20023KT CAVOK 37/08 Q1005

Hora: 15:45 (12:45 UTC)

Previsão

O boletim foi feito há 2 horas e 45 minutos, às 10:00 UTC
Previsão válida de 18 às 12 UTC a 19 às 18 UTC
Vento 15 kt de oes-sudoeste com rajadas de 25 kt
Visibilidade 10 km ou mais
Poucas nuvensa uma altura de 3000 ft
Temporariamente
de 18 às 18 UTC a 19 às 12 UTC
Vento 10 kt de sudoeste
Visibilidade 10 km ou mais
sem nuvens abaixo de 1500 metros e sem cumulonimbus

TAF: OSDI 181000Z 1812/1918 24015G25KT 9999 FEW030 TEMPO 1818/1912 22010KT CAVOK

Observações e previsões do tempo de mais de 4000 aeroportos (mensagens METAR e TAF).

As estações disponíveis são os pontos amarelos e vermelhos sobre o mapa.

Mova o rato sobre o mapa para ver o nome da estação.

Depois clique no ponto para visualizar as observações e previsões meteorológicas.

Para alterar o mapa : clique nos botões verdes com uma cruz preta para aumentar o zoom; no botão verde com uma pitada de zoom; ou nas setas verdes para mapas adjacentes.


METAR-TAF: